createdAt,value
2019-01-13T00:01:43.717Z,15.48
2019-01-13T00:04:15.209Z,14.35
2019-01-13T00:06:46.643Z,14.80
2019-01-13T00:09:18.027Z,15.03
2019-01-13T00:11:49.129Z,16.20
2019-01-13T00:14:20.467Z,21.85
2019-01-13T00:16:51.975Z,20.35
2019-01-13T00:19:23.642Z,24.37
2019-01-13T00:21:54.915Z,22.95
2019-01-13T00:24:26.322Z,23.52
2019-01-13T00:26:57.741Z,25.05
2019-01-13T00:29:29.035Z,26.73
2019-01-13T00:32:00.138Z,25.27
2019-01-13T00:34:31.468Z,26.15
2019-01-13T00:37:02.818Z,24.10
2019-01-13T00:39:34.214Z,21.97
2019-01-13T00:42:05.676Z,23.83
2019-01-13T00:44:36.834Z,23.73
2019-01-13T00:47:08.192Z,19.32
2019-01-13T00:49:39.635Z,20.27
2019-01-13T00:52:11.039Z,18.70
2019-01-13T00:54:42.111Z,21.82
2019-01-13T00:57:13.171Z,18.17
2019-01-13T00:59:44.324Z,18.27
2019-01-13T01:02:15.626Z,21.45
2019-01-13T01:04:47.074Z,19.70
2019-01-13T01:07:18.452Z,17.75
2019-01-13T01:09:49.755Z,14.73
2019-01-13T01:12:20.896Z,14.63
2019-01-13T01:14:52.070Z,13.98
2019-01-13T01:17:23.349Z,16.60
2019-01-13T01:19:54.750Z,22.42
2019-01-13T01:22:25.866Z,22.45
2019-01-13T01:24:57.012Z,22.27
2019-01-13T01:27:28.100Z,21.68
2019-01-13T01:29:59.375Z,20.60
2019-01-13T01:32:30.405Z,25.88
2019-01-13T01:35:01.534Z,23.92
2019-01-13T01:37:32.926Z,21.65
2019-01-13T01:40:05.524Z,24.82
2019-01-13T01:42:36.843Z,25.08
2019-01-13T01:45:10.309Z,22.02
2019-01-13T01:47:41.478Z,22.87
2019-01-13T01:50:13.454Z,23.38
2019-01-13T01:52:45.457Z,23.83
2019-01-13T01:55:18.663Z,23.70
2019-01-13T01:57:49.916Z,24.07
2019-01-13T02:00:23.502Z,25.32
2019-01-13T02:02:55.045Z,26.60
2019-01-13T02:05:26.609Z,21.97
2019-01-13T02:07:57.712Z,22.80
2019-01-13T02:10:29.070Z,20.95
2019-01-13T02:13:00.469Z,21.15
2019-01-13T02:15:32.052Z,20.50
2019-01-13T02:18:03.681Z,20.27
2019-01-13T02:20:35.151Z,17.82
2019-01-13T02:23:06.581Z,14.43
2019-01-13T02:25:38.105Z,16.23
2019-01-13T02:28:09.366Z,14.30
2019-01-13T02:30:48.813Z,14.25
2019-01-13T02:33:13.931Z,15.72
2019-01-13T02:35:45.473Z,14.10
2019-01-13T02:38:16.843Z,13.48
2019-01-13T02:40:48.338Z,12.13
2019-01-13T02:43:19.687Z,15.15
2019-01-13T02:45:50.766Z,12.73
2019-01-13T02:48:22.233Z,14.40
2019-01-13T02:50:53.634Z,13.72
2019-01-13T02:53:24.966Z,13.15
2019-01-13T02:55:56.388Z,12.37
2019-01-13T02:58:27.606Z,12.05
2019-01-13T03:00:59.117Z,14.00
2019-01-13T03:03:30.409Z,13.45
2019-01-13T03:06:01.881Z,12.60
2019-01-13T03:08:33.193Z,14.63
2019-01-13T03:11:05.695Z,14.73
2019-01-13T03:13:37.276Z,19.60
2019-01-13T03:16:08.768Z,16.95
2019-01-13T03:18:40.905Z,16.55
2019-01-13T03:21:12.374Z,16.70
2019-01-13T03:23:43.405Z,17.42
2019-01-13T03:26:14.584Z,15.05
2019-01-13T03:28:46.036Z,13.80
2019-01-13T03:31:17.437Z,14.95
2019-01-13T03:33:48.864Z,14.85
2019-01-13T03:36:20.189Z,14.65
2019-01-13T03:38:51.781Z,17.30
2019-01-13T03:41:23.201Z,20.45
2019-01-13T03:43:54.537Z,19.82
2019-01-13T03:46:25.946Z,19.98
2019-01-13T03:48:57.558Z,18.95
2019-01-13T03:51:28.950Z,19.32
2019-01-13T03:54:00.370Z,21.73
2019-01-13T03:56:32.743Z,20.95
2019-01-13T03:59:03.986Z,21.87
2019-01-13T04:01:35.380Z,20.92
2019-01-13T04:04:06.931Z,20.17
2019-01-13T04:06:38.457Z,17.35
2019-01-13T04:09:10.327Z,23.50
2019-01-13T04:11:41.878Z,18.45
2019-01-13T04:14:13.193Z,21.12
2019-01-13T04:16:44.874Z,18.48
2019-01-13T04:19:16.159Z,17.00
2019-01-13T04:21:47.777Z,14.80
2019-01-13T04:24:18.957Z,19.20
2019-01-13T04:26:50.478Z,16.37
2019-01-13T04:29:21.695Z,15.03
2019-01-13T04:31:53.102Z,14.40
2019-01-13T04:34:24.386Z,13.85
2019-01-13T04:36:55.725Z,13.78
2019-01-13T04:39:26.957Z,15.13
2019-01-13T04:41:58.420Z,14.63
2019-01-13T04:44:29.757Z,15.03
2019-01-13T04:47:01.115Z,13.00
2019-01-13T04:49:32.467Z,14.00
2019-01-13T04:52:03.969Z,15.70
2019-01-13T04:54:35.157Z,14.05
2019-01-13T04:57:06.417Z,18.17
2019-01-13T04:59:38.072Z,12.68
2019-01-13T05:02:09.502Z,15.05
2019-01-13T05:04:40.812Z,15.32
2019-01-13T05:07:12.110Z,15.38
2019-01-13T05:09:43.454Z,17.35
2019-01-13T05:12:14.815Z,15.60
2019-01-13T05:14:46.158Z,17.42
2019-01-13T05:17:17.651Z,17.17
2019-01-13T05:19:48.854Z,12.73
2019-01-13T05:22:20.263Z,14.83
2019-01-13T05:24:51.561Z,13.98
2019-01-13T05:27:22.940Z,15.65
2019-01-13T05:29:54.134Z,17.00
2019-01-13T05:32:25.518Z,16.40
2019-01-13T05:34:56.840Z,19.07
2019-01-13T05:37:27.995Z,16.67
2019-01-13T05:39:59.058Z,17.05
2019-01-13T05:42:30.238Z,15.85
2019-01-13T05:45:01.296Z,15.28
2019-01-13T05:47:32.407Z,12.25
2019-01-13T05:50:04.004Z,12.65
2019-01-13T05:52:35.573Z,12.93
2019-01-13T05:55:07.465Z,16.02
2019-01-13T05:57:38.856Z,13.93
2019-01-13T06:00:13.660Z,13.28
2019-01-13T06:02:45.114Z,14.50
2019-01-13T06:05:16.495Z,14.40
2019-01-13T06:07:47.992Z,13.75
2019-01-13T06:10:20.094Z,14.90
2019-01-13T06:12:51.307Z,15.53
2019-01-13T06:15:23.990Z,16.57
2019-01-13T06:17:55.435Z,17.77
2019-01-13T06:20:27.017Z,22.32
2019-01-13T06:22:58.417Z,36.88
2019-01-13T06:25:29.747Z,44.95
2019-01-13T06:28:01.122Z,46.55
2019-01-13T06:30:32.212Z,49.83
2019-01-13T06:33:03.543Z,54.23
2019-01-13T06:35:34.722Z,49.48
2019-01-13T06:38:07.223Z,53.40
2019-01-13T06:40:38.522Z,56.68
2019-01-13T06:43:09.722Z,62.43
2019-01-13T06:45:41.177Z,63.50
2019-01-13T06:48:12.634Z,67.47
2019-01-13T06:50:44.090Z,67.55
2019-01-13T06:53:15.475Z,72.20
2019-01-13T06:55:46.829Z,64.97
2019-01-13T06:58:18.237Z,60.98
2019-01-13T07:00:49.663Z,64.03
2019-01-13T07:03:21.261Z,57.50
2019-01-13T07:05:52.630Z,65.30
2019-01-13T07:08:24.077Z,68.05
2019-01-13T07:10:55.377Z,63.65
2019-01-13T07:13:26.754Z,71.20
2019-01-13T07:15:58.076Z,60.85
2019-01-13T07:18:29.303Z,58.45
2019-01-13T07:21:00.729Z,59.15
2019-01-13T07:23:32.112Z,62.30
2019-01-13T07:26:03.576Z,60.55
2019-01-13T07:28:35.040Z,58.00
2019-01-13T07:31:06.282Z,61.25
2019-01-13T07:33:37.609Z,59.58
2019-01-13T07:36:09.111Z,63.00
2019-01-13T07:38:40.403Z,62.45
2019-01-13T07:41:11.815Z,57.80
2019-01-13T07:43:43.453Z,51.77
2019-01-13T07:46:14.929Z,57.38
2019-01-13T07:48:46.326Z,66.07
2019-01-13T07:51:17.664Z,53.60
2019-01-13T07:53:49.224Z,53.68
2019-01-13T07:56:20.583Z,53.38
2019-01-13T07:58:52.289Z,51.45
2019-01-13T08:01:23.654Z,54.98
2019-01-13T08:03:55.501Z,54.90
2019-01-13T08:06:26.992Z,60.60
2019-01-13T08:08:58.456Z,54.70
2019-01-13T08:11:29.843Z,68.92
2019-01-13T08:14:01.339Z,72.12
2019-01-13T08:16:32.828Z,63.68
2019-01-13T08:19:04.433Z,69.35
2019-01-13T08:21:35.777Z,56.60
2019-01-13T08:24:07.012Z,61.00
2019-01-13T08:26:38.380Z,65.80
2019-01-13T08:29:09.814Z,57.62
2019-01-13T08:31:41.147Z,53.75
2019-01-13T08:34:12.783Z,51.85
2019-01-13T08:36:44.173Z,46.70
2019-01-13T08:39:15.312Z,52.95
2019-01-13T08:41:46.365Z,51.10
2019-01-13T08:44:17.631Z,48.33
2019-01-13T08:46:49.012Z,47.33
2019-01-13T08:49:20.214Z,46.70
2019-01-13T08:51:51.743Z,49.03
2019-01-13T08:54:22.927Z,45.08
2019-01-13T08:56:54.086Z,42.25
2019-01-13T08:59:25.709Z,39.25
2019-01-13T09:01:57.088Z,42.35
2019-01-13T09:04:28.429Z,39.95
2019-01-13T09:06:59.827Z,40.43
2019-01-13T09:09:31.011Z,38.78
2019-01-13T09:12:02.285Z,38.33
2019-01-13T09:14:33.553Z,40.50
2019-01-13T09:17:05.520Z,42.55
2019-01-13T09:19:37.007Z,44.85
2019-01-13T09:22:08.243Z,42.25
2019-01-13T09:24:39.449Z,37.98
2019-01-13T09:27:10.788Z,39.75
2019-01-13T09:29:43.278Z,43.00
2019-01-13T09:32:14.548Z,38.55
2019-01-13T09:34:45.768Z,40.55
2019-01-13T09:37:17.103Z,44.18
2019-01-13T09:39:48.861Z,40.58
2019-01-13T09:42:20.179Z,43.50
2019-01-13T09:44:51.832Z,45.40
2019-01-13T09:47:23.410Z,46.13
2019-01-13T09:49:54.805Z,50.85
2019-01-13T09:52:26.136Z,54.23
2019-01-13T09:54:57.395Z,46.13
2019-01-13T09:57:28.469Z,48.85
2019-01-13T09:59:59.561Z,50.60
2019-01-13T10:02:30.806Z,49.53
2019-01-13T10:05:02.242Z,41.33
2019-01-13T10:07:33.604Z,45.55
2019-01-13T10:10:06.415Z,42.80
2019-01-13T10:12:37.519Z,51.55
2019-01-13T10:15:12.035Z,53.02
2019-01-13T10:17:44.000Z,54.98
2019-01-13T10:20:16.132Z,52.78
2019-01-13T10:22:47.523Z,47.05
2019-01-13T10:25:19.073Z,55.78
2019-01-13T10:27:50.598Z,45.80
2019-01-13T10:30:30.449Z,39.70
2019-01-13T10:33:01.928Z,41.70
2019-01-13T10:35:33.311Z,39.55
2019-01-13T10:38:04.658Z,37.65
2019-01-13T10:40:36.067Z,36.90
2019-01-13T10:43:07.530Z,42.10
2019-01-13T10:45:38.802Z,40.10
2019-01-13T10:48:10.734Z,42.73
2019-01-13T10:50:42.225Z,44.95
2019-01-13T10:53:13.834Z,40.83
2019-01-13T10:55:45.376Z,42.38
2019-01-13T10:58:16.484Z,41.73
2019-01-13T11:00:48.098Z,44.33
2019-01-13T11:03:20.504Z,46.50
2019-01-13T11:05:51.836Z,47.98
2019-01-13T11:08:23.255Z,45.70
2019-01-13T11:10:54.762Z,44.95
2019-01-13T11:13:26.421Z,46.02
2019-01-13T11:15:58.799Z,47.75
2019-01-13T11:18:30.414Z,49.23
2019-01-13T11:21:01.959Z,51.73
2019-01-13T11:23:33.391Z,45.33
2019-01-13T11:26:05.155Z,45.17
2019-01-13T11:28:36.394Z,50.45
2019-01-13T11:31:07.750Z,53.50
2019-01-13T11:33:39.200Z,55.73
2019-01-13T11:36:10.690Z,57.10
2019-01-13T11:38:42.051Z,45.83
2019-01-13T11:41:13.485Z,44.63
2019-01-13T11:43:44.665Z,43.10
2019-01-13T11:46:16.021Z,43.23
2019-01-13T11:48:47.113Z,41.45
2019-01-13T11:51:18.228Z,36.42
2019-01-13T11:53:49.647Z,31.12
2019-01-13T11:56:20.880Z,23.35
2019-01-13T11:58:52.595Z,28.98
2019-01-13T12:01:23.897Z,31.50
2019-01-13T12:03:55.300Z,31.95
2019-01-13T12:06:26.943Z,30.62
2019-01-13T12:08:58.503Z,31.48
2019-01-13T12:11:29.925Z,35.58
2019-01-13T12:14:01.283Z,36.50
2019-01-13T12:16:32.708Z,34.63
2019-01-13T12:19:04.019Z,26.75
2019-01-13T12:21:35.478Z,29.30
2019-01-13T12:24:06.905Z,27.60
2019-01-13T12:26:38.394Z,28.83
2019-01-13T12:29:09.596Z,28.10
2019-01-13T12:31:40.773Z,26.27
2019-01-13T12:34:12.031Z,28.00
2019-01-13T12:36:43.406Z,40.90
2019-01-13T12:39:15.151Z,35.90
2019-01-13T12:41:46.700Z,40.30
2019-01-13T12:44:17.828Z,37.08
2019-01-13T12:46:49.314Z,43.52
2019-01-13T12:49:20.777Z,38.38
2019-01-13T12:51:52.031Z,41.85
2019-01-13T12:54:23.360Z,37.15
2019-01-13T12:56:54.522Z,37.10
2019-01-13T12:59:25.749Z,37.50
2019-01-13T13:01:57.217Z,30.40
2019-01-13T13:04:28.649Z,29.80
2019-01-13T13:07:00.262Z,32.78
2019-01-13T13:09:31.675Z,35.73
2019-01-13T13:12:03.328Z,28.60
2019-01-13T13:14:34.551Z,33.98
2019-01-13T13:17:06.038Z,28.30
2019-01-13T13:19:37.374Z,30.70
2019-01-13T13:22:08.744Z,32.08
2019-01-13T13:24:39.810Z,31.05
2019-01-13T13:27:11.262Z,31.77
2019-01-13T13:29:42.543Z,24.67
2019-01-13T13:32:14.017Z,31.77
2019-01-13T13:34:45.624Z,31.75
2019-01-13T13:37:17.118Z,29.95
2019-01-13T13:39:48.510Z,27.55
2019-01-13T13:42:19.769Z,39.73
2019-01-13T13:44:51.078Z,33.98
2019-01-13T13:47:22.328Z,43.87
2019-01-13T13:49:53.590Z,36.03
2019-01-13T13:52:25.726Z,41.63
2019-01-13T13:54:57.056Z,37.10
2019-01-13T13:57:28.293Z,37.55
2019-01-13T13:59:59.417Z,39.30
2019-01-13T14:02:30.661Z,40.63
2019-01-13T14:05:01.791Z,44.03
2019-01-13T14:07:32.975Z,35.05
2019-01-13T14:10:08.077Z,34.95
2019-01-13T14:12:39.683Z,32.08
2019-01-13T14:15:12.715Z,33.83
2019-01-13T14:17:44.170Z,28.92
2019-01-13T14:20:17.596Z,29.87
2019-01-13T14:22:50.418Z,26.97
2019-01-13T14:25:21.939Z,35.50
2019-01-13T14:27:53.480Z,27.45
2019-01-13T14:30:26.208Z,29.92
2019-01-13T14:32:57.807Z,29.37
2019-01-13T14:35:29.128Z,26.62
2019-01-13T14:38:00.561Z,25.80
2019-01-13T14:40:31.697Z,41.42
2019-01-13T14:43:03.158Z,34.33
2019-01-13T14:45:34.391Z,35.80
2019-01-13T14:48:06.027Z,34.43
2019-01-13T14:50:39.758Z,29.02
2019-01-13T14:53:10.982Z,25.97
2019-01-13T14:55:42.026Z,27.95
2019-01-13T14:58:13.229Z,30.57
2019-01-13T15:00:44.686Z,28.70
2019-01-13T15:03:16.198Z,27.75
2019-01-13T15:05:47.479Z,29.32
2019-01-13T15:08:18.681Z,28.40
2019-01-13T15:10:49.797Z,31.52
2019-01-13T15:13:20.968Z,27.73
2019-01-13T15:15:52.416Z,31.65
2019-01-13T15:18:23.889Z,30.88
2019-01-13T15:20:55.391Z,32.38
2019-01-13T15:23:26.631Z,34.50
2019-01-13T15:25:58.029Z,33.35
2019-01-13T15:28:29.625Z,30.15
2019-01-13T15:31:01.109Z,30.62
2019-01-13T15:33:32.261Z,31.10
2019-01-13T15:36:03.390Z,29.92
2019-01-13T15:38:34.473Z,32.60
2019-01-13T15:41:05.588Z,35.28
2019-01-13T15:43:36.800Z,37.50
2019-01-13T15:46:07.864Z,35.33
2019-01-13T15:48:38.994Z,32.63
2019-01-13T15:51:10.161Z,36.63
2019-01-13T15:53:41.294Z,34.92
2019-01-13T15:56:12.544Z,33.48
2019-01-13T15:58:43.825Z,37.08
2019-01-13T16:01:15.172Z,33.25
2019-01-13T16:03:46.498Z,34.92
2019-01-13T16:06:17.649Z,30.50
2019-01-13T16:08:48.805Z,31.85
2019-01-13T16:11:20.033Z,30.82
2019-01-13T16:13:51.191Z,33.08
2019-01-13T16:16:22.334Z,33.35
2019-01-13T16:18:53.765Z,35.05
2019-01-13T16:21:27.859Z,33.55
2019-01-13T16:24:04.248Z,32.58
2019-01-13T16:26:36.316Z,31.10
2019-01-13T16:29:07.610Z,32.60
2019-01-13T16:31:39.031Z,32.03
2019-01-13T16:34:10.312Z,31.35
2019-01-13T16:36:41.704Z,39.85
2019-01-13T16:39:13.020Z,37.13
2019-01-13T16:41:44.376Z,33.55
2019-01-13T16:44:15.827Z,32.85
2019-01-13T16:46:46.902Z,27.95
2019-01-13T16:49:18.364Z,27.55
2019-01-13T16:51:49.795Z,23.52
2019-01-13T16:54:21.259Z,25.60
2019-01-13T16:56:52.824Z,29.42
2019-01-13T16:59:24.005Z,33.73
2019-01-13T17:01:55.088Z,38.90
2019-01-13T17:04:28.946Z,68.28
2019-01-13T17:06:59.542Z,72.35
2019-01-13T17:09:30.921Z,71.07
2019-01-13T17:12:02.222Z,67.82
2019-01-13T17:14:33.639Z,68.97
2019-01-13T17:17:04.991Z,66.42
2019-01-13T17:19:36.283Z,77.22
2019-01-13T17:22:07.732Z,82.53
2019-01-13T17:24:38.937Z,70.85
2019-01-13T17:27:10.416Z,64.53
2019-01-13T17:29:41.869Z,61.68
2019-01-13T17:32:14.178Z,70.00
2019-01-13T17:34:45.653Z,48.87
2019-01-13T17:37:16.830Z,48.87
2019-01-13T17:39:47.981Z,46.98
2019-01-13T17:42:19.309Z,49.48
2019-01-13T17:44:50.459Z,35.98
2019-01-13T17:47:21.524Z,36.60
2019-01-13T17:49:53.759Z,35.33
2019-01-13T17:52:25.272Z,36.40
2019-01-13T17:54:56.557Z,32.50
2019-01-13T17:57:27.912Z,34.70
2019-01-13T17:59:59.136Z,35.08
2019-01-13T18:02:30.346Z,36.50
2019-01-13T18:05:01.508Z,35.30
2019-01-13T18:07:32.627Z,31.93
2019-01-13T18:10:04.345Z,36.10
2019-01-13T18:12:35.393Z,33.67
2019-01-13T18:15:07.109Z,33.33
2019-01-13T18:17:38.479Z,32.28
2019-01-13T18:20:13.601Z,29.12
2019-01-13T18:22:45.799Z,32.53
2019-01-13T18:25:17.159Z,32.50
2019-01-13T18:27:48.554Z,44.93
2019-01-13T18:30:22.274Z,41.10
2019-01-13T18:32:53.621Z,44.13
2019-01-13T18:35:25.029Z,42.00
2019-01-13T18:37:56.364Z,39.95
2019-01-13T18:40:28.018Z,38.78
2019-01-13T18:42:59.411Z,42.43
2019-01-13T18:46:33.299Z,40.52
2019-01-13T18:50:18.762Z,46.75
2019-01-13T18:54:04.368Z,42.78
2019-01-13T18:56:44.814Z,45.00
2019-01-13T19:00:04.305Z,50.58
2019-01-13T19:02:39.576Z,52.13
2019-01-13T19:05:55.583Z,50.05
2019-01-13T19:09:31.686Z,53.02
2019-01-13T19:13:13.188Z,39.08
2019-01-13T19:17:09.141Z,31.93
2019-01-13T19:20:17.779Z,34.95
2019-01-13T19:23:54.732Z,31.55
2019-01-13T19:27:05.134Z,26.27
2019-01-13T19:30:44.537Z,30.17
2019-01-13T19:33:17.462Z,42.83
2019-01-13T19:36:46.716Z,43.80
2019-01-13T19:39:29.022Z,122.35
2019-01-13T19:42:07.657Z,143.82
2019-01-13T19:44:39.414Z,133.85
2019-01-13T19:47:10.771Z,119.02
2019-01-13T19:49:42.170Z,106.55
2019-01-13T19:52:13.405Z,82.05
2019-01-13T19:54:44.525Z,93.15
2019-01-13T19:57:16.889Z,75.08
2019-01-13T19:59:48.265Z,69.10
2019-01-13T20:02:20.710Z,63.40
2019-01-13T20:04:51.890Z,68.72
2019-01-13T20:07:23.151Z,67.82
2019-01-13T20:09:54.410Z,68.87
2019-01-13T20:12:25.888Z,76.57
2019-01-13T20:14:57.021Z,79.25
2019-01-13T20:17:28.109Z,88.07
2019-01-13T20:20:02.666Z,99.47
2019-01-13T20:22:43.235Z,87.35
2019-01-13T20:25:40.459Z,89.00
2019-01-13T20:28:21.836Z,87.53
2019-01-13T20:31:20.900Z,95.50
2019-01-13T20:33:53.887Z,95.12
2019-01-13T20:36:25.579Z,106.27
2019-01-13T20:38:57.124Z,100.22
2019-01-13T20:41:28.548Z,111.30
2019-01-13T20:44:00.057Z,103.78
2019-01-13T20:46:31.364Z,97.72
2019-01-13T20:49:02.786Z,100.53
2019-01-13T20:51:33.858Z,92.22
2019-01-13T20:54:07.985Z,94.35
2019-01-13T20:56:38.196Z,96.67
2019-01-13T20:59:09.506Z,98.15
2019-01-13T21:01:40.813Z,95.83
2019-01-13T21:04:12.291Z,95.75
2019-01-13T21:06:43.595Z,103.42
2019-01-13T21:09:14.999Z,101.50
2019-01-13T21:11:46.617Z,108.12
2019-01-13T21:14:18.134Z,100.58
2019-01-13T21:16:49.595Z,109.63
2019-01-13T21:19:20.983Z,99.20
2019-01-13T21:21:52.229Z,102.27
2019-01-13T21:24:23.549Z,107.20
2019-01-13T21:26:54.648Z,107.60
2019-01-13T21:29:26.126Z,110.70
2019-01-13T21:31:57.216Z,113.20
2019-01-13T21:34:29.392Z,106.27
2019-01-13T21:37:00.715Z,109.75
2019-01-13T21:39:31.904Z,106.97
2019-01-13T21:42:03.141Z,106.17
2019-01-13T21:44:34.255Z,91.50
2019-01-13T21:47:05.667Z,104.87
2019-01-13T21:49:37.372Z,105.40
2019-01-13T21:52:08.603Z,100.25
2019-01-13T21:54:40.170Z,103.32
2019-01-13T21:57:11.235Z,105.07
2019-01-13T21:59:42.498Z,102.78
2019-01-13T22:02:13.850Z,105.03
2019-01-13T22:04:46.199Z,109.15
2019-01-13T22:07:17.312Z,106.72
2019-01-13T22:09:48.331Z,100.30
2019-01-13T22:12:19.548Z,106.55
2019-01-13T22:14:50.672Z,88.87
2019-01-13T22:17:21.984Z,100.02
2019-01-13T22:19:53.358Z,99.52
2019-01-13T22:22:24.335Z,89.50
2019-01-13T22:24:55.528Z,92.02
2019-01-13T22:27:24.585Z,83.00
2019-01-13T22:29:53.671Z,82.67
2019-01-13T22:32:22.776Z,80.30
2019-01-13T22:34:51.841Z,86.08
2019-01-13T22:37:20.973Z,90.57
2019-01-13T22:39:50.160Z,81.80
2019-01-13T22:42:21.134Z,89.30
2019-01-13T22:44:52.758Z,87.12
2019-01-13T22:47:24.017Z,85.87
2019-01-13T22:49:55.180Z,95.47
2019-01-13T22:52:26.252Z,95.47
2019-01-13T22:54:57.325Z,89.13
2019-01-13T22:57:28.587Z,94.40
2019-01-13T22:59:59.920Z,95.28
2019-01-13T23:02:31.224Z,103.15
2019-01-13T23:05:02.395Z,101.15
2019-01-13T23:07:33.961Z,102.25
2019-01-13T23:10:05.608Z,103.62
2019-01-13T23:12:36.682Z,97.70
2019-01-13T23:15:07.975Z,102.40
2019-01-13T23:17:39.003Z,94.20
2019-01-13T23:20:11.379Z,103.53
2019-01-13T23:22:42.430Z,89.83
2019-01-13T23:25:13.499Z,77.20
2019-01-13T23:27:44.889Z,68.33
2019-01-13T23:30:16.266Z,78.83
2019-01-13T23:32:47.712Z,96.37
2019-01-13T23:35:19.169Z,89.30
2019-01-13T23:37:50.518Z,73.80
2019-01-13T23:40:21.663Z,74.32
2019-01-13T23:42:52.773Z,79.47
2019-01-13T23:45:24.138Z,72.58
2019-01-13T23:47:55.495Z,69.30
2019-01-13T23:50:27.057Z,74.87
2019-01-13T23:52:58.437Z,70.37
2019-01-13T23:55:29.671Z,81.65
2019-01-13T23:58:00.970Z,70.47
